Time;durP1;ratioP1;P1;durP2;ratioP2;P2;SDS_P1;SDS_P2;PMS_P1;PMS_P2;Temp;Humidity;BMP_temperature;BMP_pressure;BME280_temperature;BME280_humidity;BME280_pressure;Samples;Min_cycle;Max_cycle;Signal;HPM_P1;HPM_P2
2022/05/16 00:02:03;;;;;;;;;;;;;;;16.84;49.57;98054.94;5150809;27;19942;-59
2022/05/16 00:04:31;;;;;;;;;;;;;;;16.74;49.72;98056.22;5155404;27;20316;-61
2022/05/16 00:06:59;;;;;;;;;;;;;;;16.68;49.87;98057.59;5163848;27;19931;-60
2022/05/16 00:09:28;;;;;;;;;;;;;;;16.77;49.59;98052.78;5153729;27;19919;-59
2022/05/16 00:12:19;;;;;;;;;;;;;;;16.69;49.75;98045.47;5153159;27;20285;-59
2022/05/16 00:14:47;;;;;;;;;;;;;;;16.60;50.33;98044.00;5151707;27;19950;-60
2022/05/16 00:17:16;;;;;;;;;;;;;;;16.55;50.40;98050.53;5151503;27;19918;-60
2022/05/16 00:19:44;;;;;;;;;;;;;;;16.49;50.37;98049.19;5143924;27;19932;-59
2022/05/16 00:22:12;;;;;;;;;;;;;;;16.41;50.48;98039.16;5145915;27;20359;-60
2022/05/16 00:24:43;;;;;;;;;;;;;;;16.46;50.87;98042.47;5150195;27;19923;-59
2022/05/16 00:27:12;;;;;;;;;;;;;;;16.45;50.71;98038.09;5145877;27;19919;-59
2022/05/16 00:29:40;;;;;;;;;;;;;;;16.63;49.97;98040.59;5147622;27;20425;-59
2022/05/16 00:32:09;;;;;;;;;;;;;;;16.49;50.32;98035.47;5130462;27;20431;-59
2022/05/16 00:34:37;;;;;;;;;;;;;;;16.50;50.34;98034.31;5146948;27;19945;-62
2022/05/16 00:37:05;;;;;;;;;;;;;;;16.47;50.28;98030.34;5136097;27;20387;-61
2022/05/16 00:39:33;;;;;;;;;;;;;;;16.29;50.57;98029.00;5151468;27;20356;-59
2022/05/16 00:42:06;;;;;;;;;;;;;;;16.32;50.68;98033.00;5149361;27;19997;-59
2022/05/16 00:44:38;;;;;;;;;;;;;;;16.33;50.72;98034.59;5132609;27;19919;-60
2022/05/16 00:47:06;;;;;;;;;;;;;;;16.41;50.46;98030.94;5160622;27;19919;-59
2022/05/16 00:49:35;;;;;;;;;;;;;;;16.31;50.44;98025.94;5146911;27;20299;-59
2022/05/16 00:52:05;;;;;;;;;;;;;;;16.31;50.67;98026.72;5144012;27;19927;-60
2022/05/16 00:54:34;;;;;;;;;;;;;;;16.27;50.79;98019.53;5137994;27;20300;-59
2022/05/16 00:57:03;;;;;;;;;;;;;;;16.22;50.90;98020.56;5157231;27;20247;-59
2022/05/16 00:59:34;;;;;;;;;;;;;;;16.16;51.13;98020.00;5149802;27;20014;-59
2022/05/16 01:04:48;;;;;;;;;;;;;;;16.28;50.76;98021.91;5158886;27;20358;-64
2022/05/16 01:07:18;;;;;;;;;;;;;;;16.09;50.84;98014.31;5156666;27;19947;-59
2022/05/16 01:09:46;;;;;;;;;;;;;;;16.12;51.07;98015.56;5155307;27;19919;-61
2022/05/16 01:12:14;;;;;;;;;;;;;;;16.00;51.50;98021.06;5154239;27;19927;-58
2022/05/16 01:14:44;;;;;;;;;;;;;;;16.03;51.48;98021.16;5158299;27;20000;-59
2022/05/16 01:17:12;;;;;;;;;;;;;;;15.91;51.78;98029.38;5150661;27;20174;-61
2022/05/16 01:19:40;;;;;;;;;;;;;;;16.04;51.44;98028.25;5148917;27;19925;-66
2022/05/16 01:22:14;;;;;;;;;;;;;;;15.91;51.71;98021.97;5151175;27;20369;-59
2022/05/16 01:24:45;;;;;;;;;;;;;;;15.87;51.92;98021.06;5145575;27;19925;-58
2022/05/16 01:27:13;;;;;;;;;;;;;;;15.76;52.08;98021.84;5137760;27;20470;-59
2022/05/16 01:29:41;;;;;;;;;;;;;;;15.88;51.64;98011.72;5145836;27;19919;-64
2022/05/16 01:32:09;;;;;;;;;;;;;;;15.80;51.89;98014.56;5143514;27;20683;-65
2022/05/16 01:34:37;;;;;;;;;;;;;;;15.79;51.89;98005.53;5131909;27;19926;-60
2022/05/16 01:37:05;;;;;;;;;;;;;;;15.88;51.65;98013.66;5154726;27;19950;-59
2022/05/16 01:39:33;;;;;;;;;;;;;;;15.65;52.01;98008.59;5146898;27;19919;-59
2022/05/16 01:42:01;;;;;;;;;;;;;;;15.78;51.75;98011.38;5149318;27;19922;-62
2022/05/16 01:44:30;;;;;;;;;;;;;;;15.68;52.18;98015.34;5149298;27;20259;-59
2022/05/16 01:46:58;;;;;;;;;;;;;;;15.60;52.61;98006.06;5148910;27;20347;-58
2022/05/16 01:49:26;;;;;;;;;;;;;;;15.63;52.13;98013.63;5147816;27;19919;-59
2022/05/16 01:51:54;;;;;;;;;;;;;;;15.66;52.20;98018.44;5150236;27;20420;-60
2022/05/16 01:54:22;;;;;;;;;;;;;;;15.38;52.90;98017.47;5145538;27;19919;-73
2022/05/16 01:56:51;;;;;;;;;;;;;;;15.55;52.89;98021.91;5148876;27;19919;-59
2022/05/16 01:59:20;;;;;;;;;;;;;;;15.37;52.92;98019.41;5141138;27;19922;-59
2022/05/16 02:01:50;;;;;;;;;;;;;;;15.56;52.42;98018.06;5150988;27;19923;-62
2022/05/16 02:04:43;;;;;;;;;;;;;;;15.55;52.58;98019.19;5149931;27;20323;-64
2022/05/16 02:07:11;;;;;;;;;;;;;;;15.39;52.66;98013.56;5139961;27;19923;-59
2022/05/16 02:09:40;;;;;;;;;;;;;;;15.42;52.53;98018.38;5158559;27;20030;-59
2022/05/16 02:12:11;;;;;;;;;;;;;;;15.57;52.27;98022.41;5153479;27;19919;-58
2022/05/16 02:14:39;;;;;;;;;;;;;;;15.51;52.45;98013.59;5157701;27;19919;-59
2022/05/16 02:17:10;;;;;;;;;;;;;;;15.60;52.09;98003.31;5156622;27;19941;-59
2022/05/16 02:19:40;;;;;;;;;;;;;;;15.45;52.43;98004.03;5162791;27;19963;-61
2022/05/16 02:24:53;;;;;;;;;;;;;;;15.37;52.79;98011.19;5144441;27;19946;-60
2022/05/16 02:27:23;;;;;;;;;;;;;;;15.43;52.69;98006.28;5148925;27;20025;-59
2022/05/16 02:29:51;;;;;;;;;;;;;;;15.39;52.64;98008.09;5152469;27;19972;-59
2022/05/16 02:32:19;;;;;;;;;;;;;;;15.41;52.66;97997.63;5146931;27;19968;-62
2022/05/16 02:34:48;;;;;;;;;;;;;;;15.37;52.47;98011.19;5155184;27;19922;-59
2022/05/16 02:37:16;;;;;;;;;;;;;;;15.40;52.54;98004.25;5142428;27;20370;-59
2022/05/16 02:39:44;;;;;;;;;;;;;;;15.35;52.65;97996.25;5157496;27;19987;-58
2022/05/16 02:42:14;;;;;;;;;;;;;;;15.39;52.51;98005.34;5149633;27;20496;-59
2022/05/16 02:44:46;;;;;;;;;;;;;;;15.41;52.43;98000.38;5159205;27;19919;-59
2022/05/16 02:47:14;;;;;;;;;;;;;;;15.56;52.11;98001.63;5157531;27;19919;-59
2022/05/16 02:49:42;;;;;;;;;;;;;;;15.41;52.53;98000.38;5163852;27;20018;-59
2022/05/16 02:52:10;;;;;;;;;;;;;;;15.30;52.56;97991.00;5163139;27;19975;-59
2022/05/16 02:54:42;;;;;;;;;;;;;;;15.23;52.76;97998.94;5150707;27;19959;-59
2022/05/16 02:57:10;;;;;;;;;;;;;;;15.38;52.63;97996.34;5149567;27;19980;-59
2022/05/16 03:00:03;;;;;;;;;;;;;;;15.56;51.92;97985.22;5160890;27;20342;-58
2022/05/16 03:02:33;;;;;;;;;;;;;;;15.38;52.41;97981.88;5161866;27;20005;-60
2022/05/16 03:05:01;;;;;;;;;;;;;;;15.32;52.56;97991.44;5159957;27;20352;-64
2022/05/16 03:07:29;;;;;;;;;;;;;;;15.20;53.17;97992.22;5160443;27;20025;-59
2022/05/16 03:09:57;;;;;;;;;;;;;;;15.23;53.03;97988.00;5164371;27;19999;-59
2022/05/16 03:12:24;;;;;;;;;;;;;;;15.36;52.33;97989.63;5166247;27;20323;-59
2022/05/16 03:14:55;;;;;;;;;;;;;;;15.10;53.08;97993.47;5150289;27;19961;-73
2022/05/16 03:17:23;;;;;;;;;;;;;;;15.09;53.27;97997.34;5152756;27;19923;-62
2022/05/16 03:19:53;;;;;;;;;;;;;;;15.26;53.09;97995.53;5148996;27;20009;-59
2022/05/16 03:22:21;;;;;;;;;;;;;;;15.09;53.25;97994.59;5153830;27;19919;-59
2022/05/16 03:24:49;;;;;;;;;;;;;;;14.97;53.70;97983.63;5143675;27;19919;-59
2022/05/16 03:27:17;;;;;;;;;;;;;;;15.26;53.12;97979.91;5136699;27;19958;-60
2022/05/16 03:29:46;;;;;;;;;;;;;;;15.06;53.30;97973.38;5155449;27;19963;-59
2022/05/16 03:32:15;;;;;;;;;;;;;;;15.24;53.09;97968.53;5146630;27;19920;-66
2022/05/16 03:34:43;;;;;;;;;;;;;;;14.94;53.60;97965.94;5160340;27;19922;-59
2022/05/16 03:37:13;;;;;;;;;;;;;;;15.06;53.47;97965.16;5161859;27;20330;-69
2022/05/16 03:42:26;;;;;;;;;;;;;;;14.90;53.63;97964.22;5152897;27;19931;-59
2022/05/16 03:44:54;;;;;;;;;;;;;;;14.81;54.02;97971.75;5160566;27;20026;-59
2022/05/16 03:47:22;;;;;;;;;;;;;;;14.85;53.99;97972.66;5159827;27;19965;-58
2022/05/16 03:49:50;;;;;;;;;;;;;;;14.73;54.39;97980.81;5163103;27;20429;-59
2022/05/16 03:52:22;;;;;;;;;;;;;;;14.72;54.34;97974.56;5163220;27;19922;-60
2022/05/16 03:54:50;;;;;;;;;;;;;;;14.66;54.42;97979.44;5159151;27;19931;-59
2022/05/16 03:57:18;;;;;;;;;;;;;;;14.62;54.51;97986.69;5161078;27;19941;-59
2022/05/16 03:59:54;;;;;;;;;;;;;;;14.81;54.13;97988.94;5158639;27;19923;-59
2022/05/16 04:02:23;;;;;;;;;;;;;;;14.68;54.51;97985.34;5151553;27;19919;-75
2022/05/16 04:04:51;;;;;;;;;;;;;;;14.70;54.42;97976.84;5140997;27;20355;-59
2022/05/16 04:07:21;;;;;;;;;;;;;;;14.60;54.79;97988.97;5148866;27;20121;-63
2022/05/16 04:09:50;;;;;;;;;;;;;;;14.63;54.49;97992.97;5143469;27;19919;-61
2022/05/16 04:12:18;;;;;;;;;;;;;;;14.74;54.39;97998.81;5148417;27;19926;-61
2022/05/16 04:14:46;;;;;;;;;;;;;;;14.68;54.39;98006.44;5145091;27;19948;-61
2022/05/16 04:17:14;;;;;;;;;;;;;;;14.94;53.82;98006.19;5144813;27;20296;-63
2022/05/16 04:19:42;;;;;;;;;;;;;;;14.79;54.42;97998.63;5145640;27;19919;-61
2022/05/16 04:22:10;;;;;;;;;;;;;;;14.89;54.14;98007.19;5146389;27;19919;-59
2022/05/16 04:24:38;;;;;;;;;;;;;;;14.98;54.05;98012.59;5141999;27;20337;-60
2022/05/16 04:27:07;;;;;;;;;;;;;;;15.07;53.84;98012.47;5139435;27;19926;-60
2022/05/16 04:29:35;;;;;;;;;;;;;;;15.08;53.87;98014.91;5140035;27;19919;-60
2022/05/16 04:32:04;;;;;;;;;;;;;;;15.09;54.06;98011.03;5145145;27;19972;-74
2022/05/16 04:34:32;;;;;;;;;;;;;;;15.23;53.29;98005.22;5128635;27;19926;-61
2022/05/16 04:37:03;;;;;;;;;;;;;;;15.24;53.37;98003.31;5141036;27;19927;-60
2022/05/16 04:39:31;;;;;;;;;;;;;;;15.24;53.37;98011.53;5151894;27;20013;-63
2022/05/16 04:44:46;;;;;;;;;;;;;;;15.26;53.50;98031.13;5149621;27;19919;-60
2022/05/16 04:47:14;;;;;;;;;;;;;;;15.30;53.57;98032.06;5149474;27;19924;-61
2022/05/16 04:49:43;;;;;;;;;;;;;;;15.44;53.16;98036.06;5139301;27;20153;-60
2022/05/16 04:52:11;;;;;;;;;;;;;;;15.66;52.22;98034.88;5140197;27;19923;-60
2022/05/16 04:54:40;;;;;;;;;;;;;;;15.83;52.03;98022.09;5152444;27;19919;-60
2022/05/16 04:57:09;;;;;;;;;;;;;;;15.87;52.36;98031.19;5151851;27;19930;-60
2022/05/16 04:59:36;;;;;;;;;;;;;;;16.17;52.21;98040.78;5156312;27;20351;-61
2022/05/16 05:02:31;;;;;;;;;;;;;;;16.29;51.53;98039.16;5147216;27;20365;-60
2022/05/16 05:05:00;;;;;;;;;;;;;;;16.39;50.67;98034.00;5157918;27;20382;-59
2022/05/16 05:07:28;;;;;;;;;;;;;;;16.27;51.26;98035.97;5148956;27;19967;-60
2022/05/16 05:15:53;;;;;;;;;;;;;;;16.45;50.87;98035.34;5144393;27;19938;-59
2022/05/16 05:18:23;;;;;;;;;;;;;;;16.54;51.09;98031.69;5142428;27;19919;-60
2022/05/16 05:20:51;;;;;;;;;;;;;;;16.62;50.88;98037.03;5149890;27;19919;-61
2022/05/16 05:23:19;;;;;;;;;;;;;;;16.83;50.91;98031.41;5128402;27;19971;-64
2022/05/16 05:25:50;;;;;;;;;;;;;;;16.72;50.80;98033.84;5132290;27;20001;-60
2022/05/16 05:28:18;;;;;;;;;;;;;;;16.77;50.27;98033.56;5157279;27;19923;-59
2022/05/16 05:30:47;;;;;;;;;;;;;;;16.79;50.71;98040.66;5146102;27;19919;-61
2022/05/16 05:33:14;;;;;;;;;;;;;;;16.85;50.81;98036.53;5144890;27;20416;-59
2022/05/16 05:35:43;;;;;;;;;;;;;;;17.07;50.39;98044.19;5143384;27;20213;-59
2022/05/16 05:38:12;;;;;;;;;;;;;;;17.17;49.36;98040.94;5137110;27;20006;-62
2022/05/16 05:40:40;;;;;;;;;;;;;;;17.12;49.93;98037.66;5158552;27;19923;-59
2022/05/16 05:43:08;;;;;;;;;;;;;;;17.07;50.22;98030.47;5146688;27;19966;-60
2022/05/16 05:45:36;;;;;;;;;;;;;;;17.14;50.51;98036.16;5141905;27;19919;-59
2022/05/16 05:48:05;;;;;;;;;;;;;;;17.26;49.91;98027.88;5133348;27;19922;-60
2022/05/16 05:50:33;;;;;;;;;;;;;;;17.07;50.28;98026.94;5132118;27;19923;-59
2022/05/16 05:53:03;;;;;;;;;;;;;;;17.22;49.86;98026.16;5163435;27;19919;-59
2022/05/16 05:55:31;;;;;;;;;;;;;;;17.30;50.01;98022.44;5145590;27;20355;-59
2022/05/16 05:57:59;;;;;;;;;;;;;;;17.36;50.04;98021.03;5151736;27;19926;-60
2022/05/16 06:00:27;;;;;;;;;;;;;;;17.41;49.76;98025.47;5153434;27;19964;-59
2022/05/16 06:02:56;;;;;;;;;;;;;;;17.41;50.17;98030.97;5149269;27;19938;-59
2022/05/16 06:05:24;;;;;;;;;;;;;;;17.40;50.46;98024.66;5147406;27;19923;-60
2022/05/16 06:07:52;;;;;;;;;;;;;;;17.57;50.21;98029.03;5157171;27;20345;-61
2022/05/16 06:10:23;;;;;;;;;;;;;;;17.62;49.58;98026.00;5140078;27;19972;-60
2022/05/16 06:12:51;;;;;;;;;;;;;;;17.73;49.88;98029.03;5148712;27;19926;-59
2022/05/16 06:15:20;;;;;;;;;;;;;;;17.87;49.22;98020.38;5147159;27;19931;-59
2022/05/16 06:17:49;;;;;;;;;;;;;;;18.04;49.01;98028.22;5150646;27;19929;-59
2022/05/16 06:20:16;;;;;;;;;;;;;;;18.25;48.48;98028.72;5147333;27;19926;-59
2022/05/16 06:25:42;;;;;;;;;;;;;;;18.56;47.85;98033.31;5139188;27;19940;-59
2022/05/16 06:28:11;;;;;;;;;;;;;;;18.57;47.36;98045.91;5145811;27;20021;-59
2022/05/16 06:30:40;;;;;;;;;;;;;;;18.72;47.47;98040.75;5149851;27;19923;-59
2022/05/16 06:33:08;;;;;;;;;;;;;;;18.95;47.93;98033.34;5138236;27;19962;-59
2022/05/16 06:35:36;;;;;;;;;;;;;;;19.08;47.16;98048.56;5130190;27;20013;-59
2022/05/16 06:38:08;;;;;;;;;;;;;;;19.04;47.01;98050.44;5146361;27;19919;-59
2022/05/16 06:40:36;;;;;;;;;;;;;;;19.17;46.94;98064.03;5129436;27;19919;-59
2022/05/16 06:43:07;;;;;;;;;;;;;;;19.11;47.22;98069.06;5151631;27;19926;-60
2022/05/16 06:45:35;;;;;;;;;;;;;;;19.30;47.70;98059.97;5151696;27;19928;-59
2022/05/16 06:48:03;;;;;;;;;;;;;;;19.22;47.62;98064.53;5146589;27;19951;-59
2022/05/16 06:50:31;;;;;;;;;;;;;;;19.20;47.24;98060.56;5137249;27;19928;-59
2022/05/16 06:52:59;;;;;;;;;;;;;;;19.22;47.64;98061.00;5142902;27;20410;-59
2022/05/16 06:55:27;;;;;;;;;;;;;;;19.21;47.34;98062.97;5135191;27;19920;-59
2022/05/16 06:57:55;;;;;;;;;;;;;;;19.39;47.24;98060.56;5148337;27;19919;-59
2022/05/16 07:00:26;;;;;;;;;;;;;;;19.56;46.90;98067.53;5139221;27;20234;-60
2022/05/16 07:02:59;;;;;;;;;;;;;;;19.72;47.04;98064.69;5151597;27;19919;-59
2022/05/16 07:05:45;;;;;;;;;;;;;;;19.95;46.90;98062.72;5149678;27;19929;-59
2022/05/16 07:08:13;;;;;;;;;;;;;;;20.20;45.34;98063.13;5147693;27;20029;-59
2022/05/16 07:10:41;;;;;;;;;;;;;;;20.28;45.62;98064.78;5145543;27;20247;-59
2022/05/16 07:13:10;;;;;;;;;;;;;;;20.39;44.69;98060.22;5137862;27;19950;-58
2022/05/16 07:15:39;;;;;;;;;;;;;;;20.54;45.13;98071.50;5156756;27;20346;-59
2022/05/16 07:18:10;;;;;;;;;;;;;;;20.60;44.09;98070.00;5133774;27;19964;-59
2022/05/16 07:20:38;;;;;;;;;;;;;;;20.69;43.93;98062.25;5119421;27;20390;-59
2022/05/16 07:23:06;;;;;;;;;;;;;;;20.79;43.74;98067.13;5136473;27;19919;-58
2022/05/16 07:28:25;;;;;;;;;;;;;;;20.99;43.28;98069.75;5136057;27;19927;-59
2022/05/16 07:30:54;;;;;;;;;;;;;;;21.15;42.54;98070.31;5143107;27;19919;-59
2022/05/16 07:33:23;;;;;;;;;;;;;;;21.25;42.56;98075.16;5138265;27;19946;-59
2022/05/16 07:35:52;;;;;;;;;;;;;;;21.51;42.48;98070.72;5139554;27;19931;-59
2022/05/16 07:38:20;;;;;;;;;;;;;;;21.66;41.75;98067.72;5147549;27;19927;-58
2022/05/16 07:40:48;;;;;;;;;;;;;;;21.89;42.39;98070.31;5142160;27;19926;-58
2022/05/16 07:43:17;;;;;;;;;;;;;;;21.96;41.76;98070.34;5140361;27;19920;-58
2022/05/16 07:45:45;;;;;;;;;;;;;;;22.02;40.49;98070.78;5143329;27;20412;-58
2022/05/16 07:48:15;;;;;;;;;;;;;;;22.10;41.45;98077.16;5146431;27;20324;-60
2022/05/16 07:50:43;;;;;;;;;;;;;;;22.17;40.96;98072.53;5144626;27;19922;-58
2022/05/16 07:53:12;;;;;;;;;;;;;;;22.31;40.70;98071.81;5144479;27;20046;-58
2022/05/16 07:55:41;;;;;;;;;;;;;;;22.51;39.71;98063.25;5150028;27;19951;-58
2022/05/16 07:58:09;;;;;;;;;;;;;;;22.61;40.13;98070.81;5148744;27;19918;-57
2022/05/16 08:00:37;;;;;;;;;;;;;;;22.72;39.72;98074.44;5146177;27;20267;-57
2022/05/16 08:03:05;;;;;;;;;;;;;;;22.88;40.06;98072.19;5152542;27;20270;-57
2022/05/16 08:05:36;;;;;;;;;;;;;;;22.93;40.14;98077.34;5144461;27;19976;-57
2022/05/16 08:11:14;;;;;;;;;;;;;;;23.07;39.84;98073.84;5157142;27;19926;-57
2022/05/16 08:13:42;;;;;;;;;;;;;;;23.13;39.88;98077.03;5157359;27;19925;-60
2022/05/16 08:16:10;;;;;;;;;;;;;;;22.98;39.13;98065.88;5144558;27;19931;-57
2022/05/16 08:18:38;;;;;;;;;;;;;;;22.91;39.14;98076.16;5132852;27;20270;-57
2022/05/16 08:21:10;;;;;;;;;;;;;;;22.78;38.93;98075.66;5140928;27;19923;-58
2022/05/16 08:23:38;;;;;;;;;;;;;;;22.80;39.32;98080.81;5149459;27;19969;-57
2022/05/16 08:26:06;;;;;;;;;;;;;;;23.02;39.53;98067.91;5155317;27;19931;-57
2022/05/16 08:28:33;;;;;;;;;;;;;;;23.12;39.22;98069.91;5146602;27;19919;-57
2022/05/16 08:31:01;;;;;;;;;;;;;;;23.23;39.51;98074.31;5143876;27;19930;-57
2022/05/16 08:33:33;;;;;;;;;;;;;;;23.34;38.56;98077.09;5141338;27;20022;-57
2022/05/16 08:41:35;;;;;;;;;;;;;;;23.55;36.77;98075.56;5149556;27;20184;-57
2022/05/16 08:44:07;;;;;;;;;;;;;;;23.57;36.51;98082.28;5159509;27;19919;-58
2022/05/16 08:47:00;;;;;;;;;;;;;;;23.74;36.67;98094.63;5151122;27;20013;-58
2022/05/16 08:49:30;;;;;;;;;;;;;;;23.82;37.22;98104.56;5145586;27;19946;-58
2022/05/16 08:52:00;;;;;;;;;;;;;;;23.73;36.57;98099.38;5155984;27;19919;-58
2022/05/16 08:54:34;;;;;;;;;;;;;;;23.68;36.79;98110.09;5118609;27;20458;-57
2022/05/16 08:57:03;;;;;;;;;;;;;;;23.72;37.48;98120.00;5118014;27;19928;-57
2022/05/16 08:59:32;;;;;;;;;;;;;;;23.77;38.19;98118.81;5124530;27;19932;-60
2022/05/16 09:02:02;;;;;;;;;;;;;;;23.62;38.51;98117.97;5118303;27;20030;-57
2022/05/16 09:04:31;;;;;;;;;;;;;;;23.77;37.93;98125.16;5128424;27;20354;-58
2022/05/16 09:07:02;;;;;;;;;;;;;;;23.75;38.04;98116.41;5118612;27;19927;-57
2022/05/16 09:09:40;;;;;;;;;;;;;;;23.79;38.61;98120.00;5119994;27;19988;-57
2022/05/16 09:12:11;;;;;;;;;;;;;;;23.85;37.93;98117.63;5128163;27;19962;-58
2022/05/16 09:14:42;;;;;;;;;;;;;;;23.70;38.33;98122.38;5135171;27;19920;-58
2022/05/16 09:17:12;;;;;;;;;;;;;;;23.60;38.51;98122.34;5119322;27;19920;-58
2022/05/16 09:19:51;;;;;;;;;;;;;;;23.56;38.46;98124.28;5128444;27;19919;-58
2022/05/16 09:22:22;;;;;;;;;;;;;;;23.39;39.00;98123.06;5119154;27;20282;-58
2022/05/16 09:24:51;;;;;;;;;;;;;;;23.14;39.79;98122.97;5113929;27;20369;-61
2022/05/16 09:30:09;;;;;;;;;;;;;;;22.88;41.68;98126.78;5130737;27;19919;-58
2022/05/16 09:32:38;;;;;;;;;;;;;;;22.79;42.28;98131.84;5119545;27;19951;-58
2022/05/16 09:35:07;;;;;;;;;;;;;;;22.50;44.10;98137.22;5132996;27;19980;-58
2022/05/16 09:37:34;;;;;;;;;;;;;;;22.24;45.80;98143.72;5128416;27;19931;-58
2022/05/16 09:40:08;;;;;;;;;;;;;;;22.09;47.73;98153.84;5112534;27;20010;-58
2022/05/16 09:43:01;;;;;;;;;;;;;;;21.89;50.18;98149.69;5130132;27;20355;-58
2022/05/16 09:45:30;;;;;;;;;;;;;;;21.55;51.49;98162.78;5119056;27;20341;-58
2022/05/16 09:47:59;;;;;;;;;;;;;;;21.36;51.74;98161.78;5117688;27;19930;-59
2022/05/16 09:50:27;;;;;;;;;;;;;;;21.31;52.50;98159.34;5129031;27;20374;-59
2022/05/16 09:53:10;;;;;;;;;;;;;;;21.45;53.06;98165.03;5125325;27;19930;-59
2022/05/16 09:55:45;;;;;;;;;;;;;;;21.05;54.40;98162.94;5138505;27;19919;-59
2022/05/16 09:58:14;;;;;;;;;;;;;;;21.15;54.38;98161.50;5146511;27;19950;-59
2022/05/16 10:00:44;;;;;;;;;;;;;;;20.84;55.69;98174.50;5152847;27;20244;-59
2022/05/16 10:03:15;;;;;;;;;;;;;;;20.84;56.08;98166.19;5131062;27;21426;-59
2022/05/16 10:05:47;;;;;;;;;;;;;;;20.92;54.90;98165.13;5145040;27;20217;-59
2022/05/16 10:08:23;;;;;;;;;;;;;;;21.01;54.79;98166.81;5135301;27;19938;-59
2022/05/16 10:10:53;;;;;;;;;;;;;;;21.06;55.01;98172.81;5132706;27;20287;-59
2022/05/16 10:13:21;;;;;;;;;;;;;;;21.16;55.59;98168.59;5126750;27;19924;-59
2022/05/16 10:15:49;;;;;;;;;;;;;;;21.27;55.10;98169.53;5144192;27;19945;-59
2022/05/16 10:18:18;;;;;;;;;;;;;;;21.30;54.49;98162.47;5140551;27;20357;-59
2022/05/16 10:20:48;;;;;;;;;;;;;;;21.46;54.68;98168.59;5141719;27;19920;-59
2022/05/16 10:23:18;;;;;;;;;;;;;;;21.48;54.71;98162.72;5104224;27;20323;-59
2022/05/16 10:25:46;;;;;;;;;;;;;;;21.44;54.71;98157.13;5142201;27;19923;-59
2022/05/16 10:28:16;;;;;;;;;;;;;;;21.51;55.16;98162.72;5129286;27;20384;-59
2022/05/16 10:33:34;;;;;;;;;;;;;;;21.65;55.68;98164.88;5133606;27;19968;-59
2022/05/16 10:36:06;;;;;;;;;;;;;;;21.84;54.75;98156.41;5143220;27;19919;-59
2022/05/16 10:38:35;;;;;;;;;;;;;;;21.83;53.51;98145.69;5146906;27;19931;-59
2022/05/16 10:41:06;;;;;;;;;;;;;;;21.93;53.68;98156.84;5147451;27;19927;-59
2022/05/16 10:43:41;;;;;;;;;;;;;;;22.04;53.55;98164.47;5144678;27;19926;-59
2022/05/16 10:46:10;;;;;;;;;;;;;;;22.15;51.76;98157.88;5151441;27;19919;-59
2022/05/16 10:48:41;;;;;;;;;;;;;;;22.28;51.24;98166.69;5151052;27;20290;-59
2022/05/16 10:51:10;;;;;;;;;;;;;;;22.31;51.53;98162.34;5143568;27;20240;-59
2022/05/16 10:53:39;;;;;;;;;;;;;;;22.40;50.77;98158.09;5130687;27;19941;-59
2022/05/16 10:56:10;;;;;;;;;;;;;;;22.64;50.72;98153.94;5150253;27;19919;-59
2022/05/16 10:58:47;;;;;;;;;;;;;;;22.70;50.30;98151.59;5142477;27;19927;-59
2022/05/16 11:01:17;;;;;;;;;;;;;;;22.95;50.08;98160.84;5145270;27;20362;-58
2022/05/16 11:03:53;;;;;;;;;;;;;;;23.02;50.77;98159.34;5144842;27;20006;-58
2022/05/16 11:06:25;;;;;;;;;;;;;;;23.19;50.27;98158.63;5137276;27;19923;-59
2022/05/16 11:08:56;;;;;;;;;;;;;;;23.18;49.44;98152.28;5145234;27;20498;-60
2022/05/16 11:11:27;;;;;;;;;;;;;;;23.16;50.25;98154.63;5147618;27;19972;-60
2022/05/16 11:13:59;;;;;;;;;;;;;;;23.41;49.50;98146.44;5141370;27;20319;-59
2022/05/16 11:16:28;;;;;;;;;;;;;;;23.49;49.09;98150.81;5150606;27;19926;-59
2022/05/16 11:19:24;;;;;;;;;;;;;;;23.56;47.92;98140.94;5142379;27;19971;-60
2022/05/16 11:21:54;;;;;;;;;;;;;;;23.68;48.30;98149.72;5143555;27;19927;-58
2022/05/16 11:24:26;;;;;;;;;;;;;;;23.79;47.67;98147.75;5138014;27;19927;-58
2022/05/16 11:26:54;;;;;;;;;;;;;;;23.75;46.77;98146.16;5158078;27;19984;-58
2022/05/16 11:29:24;;;;;;;;;;;;;;;23.89;46.63;98146.19;5146631;27;19923;-61
2022/05/16 11:32:09;;;;;;;;;;;;;;;24.08;46.20;98141.47;5137430;27;19992;-58
2022/05/16 11:34:45;;;;;;;;;;;;;;;24.12;45.19;98133.91;5137287;27;19923;-58
2022/05/16 11:37:15;;;;;;;;;;;;;;;24.09;46.10;98129.16;5136499;27;20274;-58
2022/05/16 11:39:45;;;;;;;;;;;;;;;24.13;46.14;98128.00;5150987;27;20023;-58
2022/05/16 11:42:15;;;;;;;;;;;;;;;24.39;45.68;98129.56;5144541;27;20235;-58
2022/05/16 11:44:48;;;;;;;;;;;;;;;24.39;45.98;98126.00;5152476;27;20269;-58
2022/05/16 11:47:18;;;;;;;;;;;;;;;24.41;45.62;98121.66;5148803;27;19923;-59
2022/05/16 11:50:08;;;;;;;;;;;;;;;24.47;45.25;98113.72;5141527;27;19958;-59
2022/05/16 11:52:57;;;;;;;;;;;;;;;24.59;44.99;98112.50;5147521;27;19919;-59
2022/05/16 12:01:33;;;;;;;;;;;;;;;24.60;44.99;98109.31;5143070;27;19949;-59
2022/05/16 12:04:06;;;;;;;;;;;;;;;24.45;44.54;98113.31;5139251;27;19919;-58
2022/05/16 12:07:01;;;;;;;;;;;;;;;24.54;44.63;98108.94;5154412;27;19963;-59
2022/05/16 12:09:31;;;;;;;;;;;;;;;24.52;44.78;98105.78;5162556;27;19918;-59
2022/05/16 12:12:36;;;;;;;;;;;;;;;24.59;45.46;98093.06;5146638;27;19984;-59
2022/05/16 12:15:28;;;;;;;;;;;;;;;24.86;45.02;98088.63;5137356;27;19931;-59
2022/05/16 12:17:58;;;;;;;;;;;;;;;25.05;43.35;98079.81;5068497;27;19920;-59
2022/05/16 12:20:34;;;;;;;;;;;;;;;25.07;43.15;98085.00;5139024;27;20439;-58
2022/05/16 12:23:46;;;;;;;;;;;;;;;24.98;42.56;98081.81;5139594;27;20035;-58
2022/05/16 12:26:15;;;;;;;;;;;;;;;24.87;42.57;98073.53;5138006;27;19923;-59
2022/05/16 12:28:43;;;;;;;;;;;;;;;24.83;42.48;98076.31;5152323;27;20025;-60
2022/05/16 12:34:07;;;;;;;;;;;;;;;24.94;42.39;98076.28;5136163;27;20294;-59
2022/05/16 12:36:35;;;;;;;;;;;;;;;24.86;42.62;98069.16;5139672;27;19918;-59
2022/05/16 12:39:11;;;;;;;;;;;;;;;24.87;42.30;98075.50;5138846;27;19942;-59
2022/05/16 12:42:07;;;;;;;;;;;;;;;24.86;41.53;98071.16;5136155;27;19965;-59
2022/05/16 12:44:44;;;;;;;;;;;;;;;24.85;40.60;98062.03;5139405;27;20025;-59
2022/05/16 12:47:27;;;;;;;;;;;;;;;25.00;39.43;98073.88;5136717;27;20154;-59
2022/05/16 12:50:05;;;;;;;;;;;;;;;24.91;39.97;98068.75;5141133;27;19931;-58
2022/05/16 12:52:56;;;;;;;;;;;;;;;24.91;40.31;98071.53;5143908;27;19931;-59
2022/05/16 12:55:35;;;;;;;;;;;;;;;24.96;40.20;98071.09;5105409;27;19926;-59
2022/05/16 12:58:27;;;;;;;;;;;;;;;24.93;41.99;98060.00;5134106;27;20389;-58
2022/05/16 13:00:57;;;;;;;;;;;;;;;25.15;40.34;98064.31;5135776;27;19965;-59
2022/05/16 13:03:28;;;;;;;;;;;;;;;25.23;40.11;98053.94;5121294;27;20077;-59
2022/05/16 13:05:58;;;;;;;;;;;;;;;25.33;40.28;98055.88;5126978;27;19925;-58
2022/05/16 13:08:50;;;;;;;;;;;;;;;25.43;39.84;98046.69;5120126;27;20356;-59
2022/05/16 13:11:21;;;;;;;;;;;;;;;25.59;40.30;98044.19;5108180;27;19920;-58
2022/05/16 13:13:56;;;;;;;;;;;;;;;25.47;39.71;98041.91;5117206;27;19941;-58
2022/05/16 13:16:26;;;;;;;;;;;;;;;25.42;40.33;98036.75;5137400;27;19930;-59
2022/05/16 13:18:59;;;;;;;;;;;;;;;25.35;40.35;98039.56;5137486;27;20363;-58
2022/05/16 13:21:36;;;;;;;;;;;;;;;25.18;41.62;98038.47;5137599;27;19920;-59
2022/05/16 13:24:07;;;;;;;;;;;;;;;25.24;41.93;98033.28;5128410;27;19926;-59
2022/05/16 13:29:23;;;;;;;;;;;;;;;25.32;41.47;98032.06;5133973;27;19919;-60
2022/05/16 13:31:52;;;;;;;;;;;;;;;25.41;41.64;98043.53;5134536;27;19984;-58
2022/05/16 13:34:28;;;;;;;;;;;;;;;25.29;43.11;98035.63;5138041;27;19964;-58
2022/05/16 13:36:58;;;;;;;;;;;;;;;25.34;42.44;98035.22;5126765;27;19932;-58
2022/05/16 13:39:26;;;;;;;;;;;;;;;25.24;42.42;98033.28;5127009;27;20325;-58
2022/05/16 13:41:55;;;;;;;;;;;;;;;25.20;42.76;98027.75;5130223;27;19923;-60
2022/05/16 13:44:23;;;;;;;;;;;;;;;25.30;42.95;98031.66;5129004;27;20303;-61
2022/05/16 13:46:52;;;;;;;;;;;;;;;25.32;43.19;98034.84;5130314;27;20318;-60
2022/05/16 13:49:21;;;;;;;;;;;;;;;25.16;44.48;98042.88;5118490;27;19976;-60
2022/05/16 13:51:50;;;;;;;;;;;;;;;25.06;43.76;98041.72;5115855;27;20356;-60
2022/05/16 13:54:43;;;;;;;;;;;;;;;24.90;44.31;98039.38;5133059;27;20025;-58
2022/05/16 13:57:16;;;;;;;;;;;;;;;24.78;44.30;98042.59;5141697;27;19922;-57